Time;durP1;ratioP1;P1;durP2;ratioP2;P2;SDS_P1;SDS_P2;PMS_P1;PMS_P2;Temp;Humidity;BMP_temperature;BMP_pressure;BME280_temperature;BME280_humidity;BME280_pressure;Samples;Min_cycle;Max_cycle;Signal;HPM_P1;HPM_P2
2022/11/08 00:19:23;;;;;;;50.35;29.90;;;;;;;2.74;100.00;99335.38;4529497;78;21834;-84
2022/11/08 00:25:29;;;;;;;47.70;28.17;;;;;;;2.74;100.00;99342.13;4524230;77;20981;-84
2022/11/08 00:31:30;;;;;;;47.70;28.50;;;;;;;2.72;100.00;99338.39;4522379;77;21005;-85
2022/11/08 00:37:32;;;;;;;52.25;27.85;;;;;;;2.70;100.00;99329.80;4529941;76;21001;-84
2022/11/08 00:43:33;;;;;;;46.50;26.90;;;;;;;2.69;100.00;99332.81;4538999;76;21328;-84
2022/11/08 00:49:34;;;;;;;41.18;24.20;;;;;;;2.65;100.00;99322.37;4534406;76;21037;-84
2022/11/08 00:55:35;;;;;;;42.13;24.63;;;;;;;2.61;100.00;99324.93;4542207;76;21008;-84
2022/11/08 01:01:37;;;;;;;42.15;24.75;;;;;;;2.47;100.00;99325.61;4534990;76;21021;-84
2022/11/08 01:07:39;;;;;;;31.77;19.82;;;;;;;2.45;100.00;99319.72;4532324;76;21007;-83
2022/11/08 01:13:41;;;;;;;41.92;23.05;;;;;;;2.48;100.00;99331.24;4540751;76;21076;-84
2022/11/08 01:19:42;;;;;;;42.80;21.33;;;;;;;2.43;100.00;99324.63;4536220;76;21019;-83
2022/11/08 01:25:45;;;;;;;39.78;20.65;;;;;;;2.42;100.00;99320.89;4539875;76;21460;-84
2022/11/08 01:31:47;;;;;;;42.93;23.27;;;;;;;2.33;100.00;99337.09;4567438;76;20993;-84
2022/11/08 01:37:49;;;;;;;37.88;21.87;;;;;;;2.26;100.00;99320.52;4544644;76;20977;-84
2022/11/08 01:43:57;;;;;;;38.70;23.20;;;;;;;2.22;100.00;99325.52;4551694;77;21829;-84
2022/11/08 01:50:14;;;;;;;42.40;22.30;;;;;;;2.15;100.00;99325.95;4578859;76;20973;-84
2022/11/08 01:56:17;;;;;;;37.63;21.50;;;;;;;2.07;100.00;99324.59;4584996;77;20991;-84
2022/11/08 02:02:19;;;;;;;44.67;24.05;;;;;;;1.99;100.00;99322.06;4552732;76;21031;-83
2022/11/08 02:08:41;;;;;;;43.80;24.50;;;;;;;1.95;100.00;99322.45;4550218;76;20983;-84
2022/11/08 02:14:43;;;;;;;38.08;21.15;;;;;;;1.94;100.00;99322.23;4570589;76;21395;-85
2022/11/08 02:20:57;;;;;;;36.93;22.17;;;;;;;1.90;100.00;99310.44;4528763;77;20995;-84
2022/11/08 02:27:00;;;;;;;37.93;20.90;;;;;;;1.88;100.00;99313.22;4577935;77;20999;-84
2022/11/08 02:33:21;;;;;;;37.90;21.02;;;;;;;1.86;100.00;99306.78;4565519;76;21558;-84
2022/11/08 02:39:23;;;;;;;31.33;18.00;;;;;;;1.86;100.00;99307.32;4536702;76;21507;-84
2022/11/08 02:45:24;;;;;;;33.33;19.42;;;;;;;1.85;100.00;99309.79;4587653;76;20977;-84
2022/11/08 02:51:25;;;;;;;33.70;18.37;;;;;;;1.85;100.00;99303.81;4540960;77;21007;-84
2022/11/08 02:57:33;;;;;;;32.17;17.87;;;;;;;1.83;100.00;99304.70;4580412;77;20972;-84
2022/11/08 03:03:44;;;;;;;35.08;18.25;;;;;;;1.80;100.00;99308.56;4547376;76;20957;-84
2022/11/08 03:09:46;;;;;;;32.33;19.15;;;;;;;1.76;100.00;99313.78;4563898;76;21019;-84
2022/11/08 03:16:01;;;;;;;34.20;17.73;;;;;;;1.80;100.00;99319.36;4558516;76;21012;-83
2022/11/08 03:22:02;;;;;;;34.80;20.80;;;;;;;1.78;100.00;99320.22;4581946;76;20981;-84
2022/11/08 03:28:07;;;;;;;29.20;18.07;;;;;;;1.76;100.00;99307.03;4561710;76;21044;-84
2022/11/08 03:34:09;;;;;;;29.10;16.95;;;;;;;1.77;100.00;99315.36;4453016;78;21892;-84
2022/11/08 03:40:11;;;;;;;29.77;16.57;;;;;;;1.70;100.00;99309.63;4374483;79;20991;-84
2022/11/08 03:46:12;;;;;;;27.65;15.00;;;;;;;1.63;100.00;99310.59;4458168;78;21622;-84
2022/11/08 03:52:14;;;;;;;26.60;15.93;;;;;;;1.55;100.00;99312.14;4389696;79;264574;-84
2022/11/08 03:58:15;;;;;;;22.40;13.93;;;;;;;1.53;100.00;99312.22;4107462;85;21014;-84
2022/11/08 04:15:13;;;;;;;23.73;14.30;;;;;;;1.53;100.00;99317.05;3912266;89;21080;-84
2022/11/08 04:17:04;;;;;;;27.05;14.15;;;;;;;1.50;100.00;99315.53;3931418;89;21198;-83
2022/11/08 04:23:05;;;;;;;28.07;13.48;;;;;;;1.44;100.00;99322.94;3942501;89;21027;-85
2022/11/08 04:29:12;;;;;;;20.50;13.32;;;;;;;1.40;100.00;99323.87;3924859;89;21645;-83
2022/11/08 04:35:13;;;;;;;21.15;12.28;;;;;;;1.33;100.00;99317.55;4009965;86;21007;-84
2022/11/08 04:41:17;;;;;;;22.95;12.20;;;;;;;1.30;100.00;99315.47;4008457;87;21039;-84
2022/11/08 04:47:19;;;;;;;21.87;12.82;;;;;;;1.26;100.00;99311.80;4013884;86;21022;-83
2022/11/08 04:53:21;;;;;;;23.57;13.72;;;;;;;1.28;100.00;99308.80;4144939;84;21618;-84
2022/11/08 04:59:22;;;;;;;20.97;13.05;;;;;;;1.26;100.00;99302.91;4189873;84;21071;-84
2022/11/08 05:05:25;;;;;;;25.55;14.58;;;;;;;1.23;100.00;99300.82;4110739;85;20998;-83
2022/11/08 05:11:29;;;;;;;22.62;15.05;;;;;;;1.10;100.00;99298.42;4181647;85;21066;-84
2022/11/08 05:17:30;;;;;;;21.42;14.65;;;;;;;1.09;100.00;99297.38;4190622;85;20959;-83
2022/11/08 05:23:35;;;;;;;27.60;16.02;;;;;;;1.09;100.00;99302.23;4185581;85;20983;-84
2022/11/08 05:29:36;;;;;;;23.83;14.95;;;;;;;1.11;100.00;99297.88;4126113;85;21042;-83
2022/11/08 05:35:38;;;;;;;26.25;15.88;;;;;;;1.09;100.00;99296.03;4156239;83;21015;-83
2022/11/08 05:41:39;;;;;;;23.77;15.72;;;;;;;1.04;100.00;99303.70;4036252;86;20983;-84
2022/11/08 05:47:44;;;;;;;34.18;18.27;;;;;;;0.95;100.00;99310.11;4120091;85;21066;-83
2022/11/08 05:53:47;;;;;;;25.40;15.85;;;;;;;0.91;100.00;99306.45;4157280;84;21047;-83
2022/11/08 05:59:50;;;;;;;27.95;16.57;;;;;;;0.87;100.00;99317.03;4137146;84;21558;-83
2022/11/08 06:05:51;;;;;;;31.33;15.30;;;;;;;0.89;100.00;99317.50;4137584;84;21054;-83
2022/11/08 06:11:52;;;;;;;28.77;13.93;;;;;;;0.96;100.00;99327.33;4135715;84;21031;-84
2022/11/08 06:17:54;;;;;;;26.82;15.98;;;;;;;1.03;100.00;99322.87;4127199;83;21072;-83
2022/11/08 06:23:55;;;;;;;24.75;13.98;;;;;;;1.11;100.00;99324.27;4032988;86;21071;-84
2022/11/08 06:29:56;;;;;;;29.98;15.85;;;;;;;1.14;100.00;99326.36;4125303;85;21040;-83
2022/11/08 06:35:58;;;;;;;30.40;19.00;;;;;;;1.16;100.00;99326.86;4036968;86;21070;-84
2022/11/08 06:42:00;;;;;;;37.58;22.52;;;;;;;1.27;100.00;99332.80;4125484;83;20986;-84
2022/11/08 06:48:05;;;;;;;45.65;27.42;;;;;;;1.45;100.00;99337.23;4109185;85;21019;-83
2022/11/08 06:54:07;;;;;;;47.35;25.43;;;;;;;1.63;100.00;99334.88;4128369;83;21042;-83
2022/11/08 07:00:10;;;;;;;49.83;25.88;;;;;;;1.83;100.00;99341.14;4117208;85;21075;-84
2022/11/08 07:06:11;;;;;;;50.20;29.18;;;;;;;2.11;100.00;99346.61;4031702;86;21066;-83
2022/11/08 07:12:13;;;;;;;71.05;41.77;;;;;;;2.44;100.00;99348.41;4126472;84;21018;-84
2022/11/08 07:18:17;;;;;;;57.98;34.03;;;;;;;2.97;100.00;99346.30;4108663;84;21083;-85
2022/11/08 07:24:19;;;;;;;46.37;30.65;;;;;;;3.63;100.00;99346.37;4184167;85;21107;-84
2022/11/08 07:30:20;;;;;;;41.25;27.20;;;;;;;4.31;100.00;99348.34;4162809;85;21098;-85
2022/11/08 07:36:23;;;;;;;35.20;21.60;;;;;;;4.92;100.00;99355.03;4122686;84;21062;-85
2022/11/08 07:42:25;;;;;;;34.38;19.55;;;;;;;5.53;100.00;99348.82;4034558;87;21068;-85
2022/11/08 07:48:35;;;;;;;35.78;18.95;;;;;;;6.15;100.00;99345.41;4128480;83;21110;-86
2022/11/08 07:54:49;;;;;;;27.95;16.57;;;;;;;6.85;100.00;99342.86;4119448;85;21047;-85
2022/11/08 08:01:19;;;;;;;21.52;14.38;;;;;;;7.52;100.00;99333.39;4074134;86;21864;-86
2022/11/08 08:07:40;;;;;;;18.98;10.80;;;;;;;8.20;100.00;99331.34;4186641;85;21046;-86
2022/11/08 08:14:09;;;;;;;16.90;9.65;;;;;;;8.93;100.00;99334.31;4107202;85;21018;-85
2022/11/08 08:20:29;;;;;;;15.80;9.75;;;;;;;9.73;100.00;99329.78;4114271;85;20975;-85
2022/11/08 08:27:20;;;;;;;12.65;9.53;;;;;;;10.36;100.00;99324.16;4110192;85;21879;-86
2022/11/08 08:33:43;;;;;;;13.80;8.98;;;;;;;11.09;100.00;99325.09;4110069;86;21023;-86
2022/11/08 08:40:17;;;;;;;17.65;8.68;;;;;;;11.81;100.00;99318.22;4009072;86;21080;-86
2022/11/08 08:46:36;;;;;;;16.55;10.68;;;;;;;12.53;100.00;99313.83;4064501;86;21057;-86
2022/11/08 08:53:13;;;;;;;17.98;12.25;;;;;;;13.23;100.00;99316.32;4104678;85;20999;-86
2022/11/08 09:06:28;;;;;;;15.55;8.35;;;;;;;14.62;100.00;99313.57;4066018;85;20997;-86
2022/11/08 09:26:25;;;;;;;11.08;6.87;;;;;;;16.23;97.74;99301.22;4051422;88;21046;-86
2022/11/08 09:33:04;;;;;;;12.93;6.97;;;;;;;17.15;96.72;99308.95;4041697;86;21563;-86
2022/11/08 10:07:57;;;;;;;3.62;2.10;;;;;;;19.75;87.36;99310.52;4035047;86;20861;-86
2022/11/08 10:28:37;;;;;;;10.55;4.53;;;;;;;19.64;80.94;99287.14;4107836;84;21121;-86
2022/11/08 10:56:02;;;;;;;7.30;4.30;;;;;;;18.63;76.03;99269.02;4138956;85;21023;-85
2022/11/08 11:03:08;;;;;;;11.08;4.62;;;;;;;18.70;76.62;99255.02;4095133;85;21034;-85
2022/11/08 11:09:33;;;;;;;8.70;4.00;;;;;;;18.45;76.19;99247.73;4039431;87;21047;-85
2022/11/08 11:16:23;;;;;;;8.85;4.08;;;;;;;18.13;74.96;99235.76;3990327;86;21050;-86
2022/11/08 11:22:34;;;;;;;7.15;3.70;;;;;;;18.02;73.99;99219.90;4045481;86;21109;-85
2022/11/08 11:35:40;;;;;;;6.08;2.87;;;;;;;17.60;72.57;99209.44;4106421;84;21673;-85
2022/11/08 11:42:11;;;;;;;7.30;3.17;;;;;;;17.40;72.64;99209.85;4089696;84;21074;-85
2022/11/08 11:48:33;;;;;;;8.68;3.10;;;;;;;17.34;71.54;99212.89;4077581;85;21725;-85
2022/11/08 11:54:56;;;;;;;6.92;3.00;;;;;;;17.02;71.37;99206.98;4084868;85;21044;-85
2022/11/08 12:01:46;;;;;;;6.75;3.33;;;;;;;16.92;71.27;99198.98;4094457;86;21070;-85
2022/11/08 12:22:54;;;;;;;6.78;2.12;;;;;;;16.59;70.49;99183.14;3935686;88;21093;-84
2022/11/08 12:29:26;;;;;;;4.08;2.25;;;;;;;16.53;69.50;99180.64;3946493;88;21077;-86
2022/11/08 12:43:35;;;;;;;5.15;2.20;;;;;;;16.56;69.12;99162.44;3883437;90;21084;-86
2022/11/08 12:49:44;;;;;;;4.45;2.05;;;;;;;16.50;69.41;99164.88;3998661;87;21174;-86
2022/11/08 13:02:40;;;;;;;12.33;4.22;;;;;;;16.20;68.25;99159.20;3882033;90;21719;-86
2022/11/08 13:09:48;;;;;;;6.05;2.45;;;;;;;16.06;68.24;99152.42;4127575;84;21514;-86
2022/11/08 13:16:25;;;;;;;6.62;3.22;;;;;;;15.99;67.95;99145.57;4099620;84;21575;-86
2022/11/08 13:29:40;;;;;;;5.00;2.52;;;;;;;15.87;67.79;99146.07;4093143;84;21056;-86
2022/11/08 13:36:38;;;;;;;4.95;2.52;;;;;;;15.78;67.55;99150.48;4096012;85;20980;-85
2022/11/08 13:43:26;;;;;;;4.57;1.97;;;;;;;15.66;67.37;99144.25;4083929;84;21655;-85
2022/11/08 13:49:28;;;;;;;6.10;3.42;;;;;;;15.55;67.36;99144.14;4075917;85;21071;-87
2022/11/08 13:56:23;;;;;;;6.60;2.65;;;;;;;15.45;67.59;99138.88;4107451;85;21019;-85
2022/11/08 14:02:49;;;;;;;10.23;3.27;;;;;;;15.37;67.72;99140.66;4007453;88;21041;-85
2022/11/08 14:22:59;;;;;;;5.22;3.58;;;;;;;14.94;67.82;99129.67;3840942;92;21021;-85
2022/11/08 14:36:06;;;;;;;5.65;2.55;;;;;;;14.68;67.67;99130.94;3813592;91;21074;-85
2022/11/08 14:42:21;;;;;;;3.60;2.47;;;;;;;14.50;67.92;99125.28;3861041;85;21188;-85
2022/11/08 14:48:30;;;;;;;12.90;3.47;;;;;;;14.19;68.37;99119.98;3992062;87;22255;-86
2022/11/08 14:55:15;;;;;;;5.45;3.22;;;;;;;13.88;69.03;99121.59;4060429;88;21042;-86
2022/11/08 15:01:33;;;;;;;19.75;6.80;;;;;;;13.66;69.43;99115.09;4009443;88;21691;-86
2022/11/08 15:07:39;;;;;;;29.30;13.68;;;;;;;13.42;69.99;99107.63;4014449;87;21054;-87
2022/11/08 15:13:45;;;;;;;23.25;11.75;;;;;;;13.31;70.47;99113.69;4002571;87;21095;-85
2022/11/08 15:19:46;;;;;;;19.60;6.67;;;;;;;13.08;71.09;99115.39;3908937;89;21579;-85
2022/11/08 15:26:02;;;;;;;12.20;6.60;;;;;;;12.80;71.55;99111.72;3903663;89;21015;-85
2022/11/08 15:32:07;;;;;;;21.05;9.78;;;;;;;12.43;72.07;99109.20;4006089;87;21017;-85
2022/11/08 15:38:38;;;;;;;16.20;6.35;;;;;;;12.03;72.86;99111.50;3898622;89;21131;-85
2022/11/08 15:45:20;;;;;;;13.53;7.25;;;;;;;11.68;73.46;99118.67;4021899;85;21050;-85
2022/11/08 15:51:40;;;;;;;14.18;8.33;;;;;;;11.31;74.15;99107.71;4010949;85;21010;-86
2022/11/08 15:57:48;;;;;;;20.40;11.97;;;;;;;10.98;74.83;99111.86;4091335;84;21445;-85
2022/11/08 16:03:51;;;;;;;21.20;13.05;;;;;;;10.69;75.63;99103.12;4088005;84;21078;-85
2022/11/08 16:09:53;;;;;;;22.62;10.82;;;;;;;10.43;76.20;99105.92;4099902;85;21108;-85
2022/11/08 16:15:57;;;;;;;28.07;13.68;;;;;;;10.24;76.82;99111.52;4092967;85;21984;-85
2022/11/08 16:22:06;;;;;;;15.72;7.97;;;;;;;10.07;77.55;99109.28;4118553;85;20982;-85
2022/11/08 16:28:08;;;;;;;12.58;8.30;;;;;;;9.94;78.16;99110.64;4085865;85;21036;-85
2022/11/08 16:34:10;;;;;;;19.25;8.40;;;;;;;9.53;79.09;99117.79;4086835;85;21096;-85
2022/11/08 16:40:45;;;;;;;;;;;;;;;;;;;;;
2022/11/08 16:46:39;;;;;;;22.58;11.68;;;;;;;9.24;79.52;99121.16;4067761;85;22291;-85
2022/11/08 16:52:40;;;;;;;18.40;10.28;;;;;;;8.97;80.13;99120.86;4097788;84;21044;-85
2022/11/08 16:58:42;;;;;;;29.85;14.98;;;;;;;8.81;80.98;99125.61;4089813;85;21607;-86
2022/11/08 17:04:49;;;;;;;26.70;11.40;;;;;;;8.64;81.21;99118.65;4089101;85;21029;-86
2022/11/08 17:10:52;;;;;;;23.38;11.48;;;;;;;8.36;81.54;99122.71;4084920;85;21956;-84
2022/11/08 17:16:53;;;;;;;24.80;11.83;;;;;;;8.14;82.63;99126.88;4095267;84;21355;-85
2022/11/08 17:22:56;;;;;;;25.17;11.90;;;;;;;8.02;82.74;99126.20;4083165;85;21655;-85
2022/11/08 17:28:57;;;;;;;38.65;18.00;;;;;;;7.87;83.23;99123.14;4101278;84;21675;-85
2022/11/08 17:34:58;;;;;;;45.08;22.95;;;;;;;7.77;83.78;99125.59;4106342;84;20999;-85
2022/11/08 17:48:24;;;;;;;51.55;24.57;;;;;;;7.43;84.63;99137.20;4030997;87;21525;-85
2022/11/08 17:54:26;;;;;;;55.58;24.30;;;;;;;7.33;85.18;99134.42;4027564;86;22129;-85
2022/11/08 18:01:10;;;;;;;60.58;28.50;;;;;;;7.17;85.27;99135.56;4054922;85;21055;-85
2022/11/08 18:07:12;;;;;;;57.90;24.98;;;;;;;6.98;85.53;99132.70;4088320;86;21570;-85
2022/11/08 18:20:17;;;;;;;45.63;22.75;;;;;;;6.67;86.42;99142.90;4067968;85;21060;-85
2022/11/08 18:26:26;;;;;;;67.22;30.48;;;;;;;6.47;87.01;99146.59;4061734;85;21055;-85
2022/11/08 18:32:27;;;;;;;67.53;30.02;;;;;;;6.29;86.89;99137.14;4056675;86;21075;-85
2022/11/08 18:38:29;;;;;;;93.72;47.58;;;;;;;6.00;87.56;99141.46;4053458;85;22016;-85
2022/11/08 18:44:31;;;;;;;84.13;39.63;;;;;;;5.89;88.23;99136.26;4058202;85;21050;-86
2022/11/08 18:50:34;;;;;;;85.85;40.73;;;;;;;5.88;88.80;99138.76;4048392;86;21052;-83
2022/11/08 18:56:37;;;;;;;86.95;40.40;;;;;;;5.77;88.81;99134.88;4056533;86;21585;-85
2022/11/08 19:02:38;;;;;;;87.70;40.83;;;;;;;5.66;88.89;99142.70;4051696;86;21108;-85
2022/11/08 19:15:17;;;;;;;79.27;38.15;;;;;;;5.56;89.98;99136.34;3991509;86;21180;-85
2022/11/08 19:21:22;;;;;;;82.62;39.88;;;;;;;5.42;89.70;99146.73;4046940;86;21053;-85
2022/11/08 19:27:24;;;;;;;90.25;43.95;;;;;;;5.32;90.03;99158.04;4046136;86;21140;-85
2022/11/08 19:33:28;;;;;;;112.75;50.75;;;;;;;5.38;90.62;99156.69;4040272;86;21088;-85
2022/11/08 19:39:29;;;;;;;85.32;38.80;;;;;;;5.28;90.39;99162.54;4007481;87;21018;-85
2022/11/08 19:45:44;;;;;;;71.00;35.50;;;;;;;5.23;90.99;99162.75;3989394;87;21030;-85
2022/11/08 19:51:46;;;;;;;83.97;45.63;;;;;;;5.16;91.12;99165.23;4090056;85;21537;-84
2022/11/08 19:57:49;;;;;;;70.42;39.80;;;;;;;5.04;90.88;99168.47;4092085;85;21020;-84
2022/11/08 20:03:53;;;;;;;77.53;39.85;;;;;;;4.90;90.90;99176.11;4093285;84;21023;-85
2022/11/08 20:09:55;;;;;;;70.20;40.05;;;;;;;4.65;90.90;99182.77;4091004;85;21549;-86
2022/11/08 20:16:09;;;;;;;88.75;46.80;;;;;;;4.61;91.75;99179.14;4114833;84;21012;-85
2022/11/08 20:22:10;;;;;;;82.67;43.63;;;;;;;4.60;91.97;99174.81;4058243;86;21020;-86
2022/11/08 20:28:12;;;;;;;83.78;44.45;;;;;;;4.47;91.53;99177.25;4061641;85;22009;-85
2022/11/08 20:34:13;;;;;;;89.17;46.60;;;;;;;4.31;91.74;99180.30;4085855;84;21113;-85
2022/11/08 20:40:45;;;;;;;100.18;48.40;;;;;;;4.27;92.19;99178.03;4074635;85;21890;-85
2022/11/08 20:46:48;;;;;;;82.65;41.58;;;;;;;4.16;92.27;99169.25;4076365;85;21019;-85
2022/11/08 20:52:50;;;;;;;84.77;44.38;;;;;;;4.06;92.51;99176.39;4087070;84;21017;-85
2022/11/08 20:58:52;;;;;;;70.00;38.20;;;;;;;4.00;92.84;99176.35;3986045;87;21032;-86
2022/11/08 21:04:54;;;;;;;87.62;46.80;;;;;;;4.04;93.40;99178.08;4114229;85;21036;-86
2022/11/08 21:10:58;;;;;;;81.10;43.70;;;;;;;3.96;93.01;99174.85;4027315;86;21093;-85
2022/11/08 21:17:00;;;;;;;88.03;43.92;;;;;;;3.84;93.13;99173.96;4142998;85;21531;-85
2022/11/08 21:23:02;;;;;;;82.10;42.43;;;;;;;3.81;93.41;99184.89;4098383;85;20976;-85
2022/11/08 21:29:05;;;;;;;77.78;42.08;;;;;;;3.67;93.32;99176.20;4066120;85;21039;-85
2022/11/08 21:35:07;;;;;;;112.42;52.75;;;;;;;3.76;94.55;99176.95;4101574;85;21051;-85
2022/11/08 21:41:09;;;;;;;115.47;54.27;;;;;;;3.77;93.88;99181.27;4102435;85;21851;-85
2022/11/08 21:47:11;;;;;;;83.30;43.80;;;;;;;3.57;93.19;99183.31;4100192;85;21044;-85
2022/11/08 21:53:12;;;;;;;92.82;44.15;;;;;;;3.34;93.28;99185.22;4081425;85;21461;-84
2022/11/08 22:05:45;;;;;;;94.67;49.48;;;;;;;3.28;94.09;99179.20;4329610;77;9999587;-84
2022/11/08 22:11:46;;;;;;;87.00;43.85;;;;;;;3.28;94.09;99179.20;4400878;79;22069;-84
2022/11/08 22:17:48;;;;;;;79.82;42.27;;;;;;;3.15;94.71;99176.92;4395940;79;21021;-84
2022/11/08 22:24:05;;;;;;;93.62;46.53;;;;;;;3.12;94.17;99174.05;4381544;79;21053;-84
2022/11/08 22:30:09;;;;;;;83.52;40.38;;;;;;;3.18;94.64;99182.23;4396827;79;21699;-84
2022/11/08 22:36:12;;;;;;;63.25;33.02;;;;;;;3.11;94.82;99182.75;4400134;79;21061;-84
2022/11/08 22:42:13;;;;;;;111.03;55.20;;;;;;;3.01;94.73;99177.66;4403584;79;21477;-84
2022/11/08 22:48:14;;;;;;;94.47;45.85;;;;;;;2.97;94.05;99179.98;4429836;79;20998;-84
2022/11/08 22:54:15;;;;;;;90.95;46.77;;;;;;;2.84;94.85;99176.34;4410740;79;20979;-84
2022/11/08 23:00:24;;;;;;;106.22;50.28;;;;;;;2.76;94.75;99179.03;4386272;78;21049;-84
2022/11/08 23:06:22;;;;;;;98.78;51.53;;;;;;;2.76;95.30;99180.39;4338526;79;21043;-84
2022/11/08 23:25:05;;;;;;;85.87;41.95;;;;;;;2.58;95.48;99182.33;4280172;81;21023;-84
2022/11/08 23:31:53;;;;;;;100.02;49.67;;;;;;;2.58;95.45;99178.27;4340167;82;21003;-84
2022/11/08 23:37:18;;;;;;;78.42;41.77;;;;;;;2.51;94.72;99185.23;4295507;80;20995;-84
2022/11/08 23:49:41;;;;;;;93.62;50.38;;;;;;;2.43;96.03;99184.67;4351973;80;21042;-84
2022/11/08 23:55:49;;;;;;;98.58;49.48;;;;;;;2.34;94.84;99187.38;4327880;80;21038;-84
